Pagrindinis puslapis
METAR-TAF:

METAR-TAF

Oro uostai :

Red Dog Mine, Aliaska, Jungtinės Amerikos Valstijos

platuma: 68-01-56N, ilguma: 162-53-57W, Aukštis: 295 m

Dabartinis oras

Ataskaita buvo paskelbta 41 minutes, ne 20:01 UTC
Vėjas 7 kt iš Rytų
Temperatūra 0°C
Drėgmė 93%
Slėgis 1034 hPa
Matomumas: 19.3 km
Apsiniaukę ne aukštis 1800 ft

METAR: PADG 222001Z 10007KT 12SM OVC018 M00/M01 A3053

Laikas: 12:42 (20:42 UTC)


TAF: trūkstamas

Orai ataskaitas ir orų prognozės (METAR, TAF).

turimą stotys yra geltonos ir raudonos taškus žemėlapyje.

Perkelti pele per norėdami pamatyti stoties vardą.

Tada spustelėkite, norėdami matyti oro stebėjimo ir prognozės.

Norėdami pakeisti žemėlapį: spustelėkite ant žalios mygtukų su juodo kryžiaus žemyn,; žalią mygtuką su brūkšneliu, jei norite nutolinti; arba žalių rodyklių gretimoms žemėlapius.


METAR-TAF: